TimePDT,TemperatureF,Dew PointF,Humidity,Sea Level PressureIn,VisibilityMPH,Wind Direction,Wind SpeedMPH,Gust SpeedMPH,PrecipitationIn,Events,Conditions,WindDirDegrees,DateUTC
12:15 AM,41.0,23.0,49,29.97,10.0,ENE,4.6,24.2,N/A,,Clear,60,2013-10-13 07:15:00
12:35 AM,37.4,24.8,60,29.98,10.0,SW,3.5,-,N/A,,Clear,220,2013-10-13 07:35:00
12:55 AM,33.8,23.0,65,29.98,10.0,Calm,Calm,-,N/A,,Clear,0,2013-10-13 07:55:00
1:15 AM,35.6,21.2,56,29.97,10.0,WSW,4.6,-,N/A,,Clear,240,2013-10-13 08:15:00
1:35 AM,37.4,21.2,52,29.97,10.0,Calm,Calm,-,N/A,,Clear,0,2013-10-13 08:35:00
1:55 AM,37.4,17.6,45,29.97,10.0,West,6.9,-,N/A,,Clear,280,2013-10-13 08:55:00
2:15 AM,39.2,17.6,42,29.97,10.0,WNW,8.1,-,N/A,,Clear,290,2013-10-13 09:15:00
2:35 AM,37.4,19.4,48,29.96,10.0,WNW,12.7,-,N/A,,Clear,300,2013-10-13 09:35:00
2:55 AM,39.2,23.0,52,29.97,10.0,NW,10.4,19.6,N/A,,Clear,320,2013-10-13 09:55:00
3:15 AM,37.4,24.8,60,29.96,10.0,WNW,10.4,18.4,N/A,,Clear,290,2013-10-13 10:15:00
3:35 AM,37.4,24.8,60,29.96,10.0,WSW,10.4,25.3,N/A,,Clear,240,2013-10-13 10:35:00
3:55 AM,37.4,19.4,48,29.96,10.0,Calm,Calm,-,N/A,,Clear,0,2013-10-13 10:55:00
4:15 AM,39.2,19.4,45,29.96,10.0,SW,4.6,-,N/A,,Clear,220,2013-10-13 11:15:00
4:35 AM,35.6,19.4,52,29.96,10.0,Calm,Calm,-,N/A,,Scattered Clouds,0,2013-10-13 11:35:00
4:55 AM,35.6,21.2,56,29.96,10.0,Calm,Calm,-,N/A,,Scattered Clouds,0,2013-10-13 11:55:00
5:15 AM,35.6,21.2,56,29.96,10.0,NW,4.6,-,N/A,,Clear,320,2013-10-13 12:15:00
5:35 AM,35.6,19.4,52,29.97,10.0,WNW,6.9,-,N/A,,Clear,290,2013-10-13 12:35:00
5:55 AM,32.0,19.4,60,29.97,10.0,North,3.5,-,N/A,,Scattered Clouds,360,2013-10-13 12:55:00
6:15 AM,32.0,19.4,60,29.99,10.0,Calm,Calm,-,N/A,,Mostly Cloudy,0,2013-10-13 13:15:00
6:35 AM,35.6,28.4,75,29.99,10.0,NW,12.7,20.7,N/A,,Overcast,320,2013-10-13 13:35:00
6:55 AM,33.8,24.8,70,30.00,10.0,NNW,4.6,-,N/A,,Scattered Clouds,330,2013-10-13 13:55:00
7:15 AM,33.8,26.6,75,30.01,10.0,Calm,Calm,-,N/A,,Clear,0,2013-10-13 14:15:00
7:35 AM,35.6,26.6,70,30.01,10.0,WNW,9.2,-,N/A,,Mostly Cloudy,290,2013-10-13 14:35:00
7:55 AM,37.4,28.4,70,30.01,10.0,West,16.1,-,N/A,,Overcast,280,2013-10-13 14:55:00
8:15 AM,37.4,28.4,70,30.02,10.0,WNW,10.4,-,N/A,,Overcast,290,2013-10-13 15:15:00
8:55 AM,42.8,26.6,53,30.03,10.0,WNW,6.9,-,N/A,,Clear,290,2013-10-13 15:55:00
9:15 AM,44.6,24.8,46,30.03,10.0,WNW,6.9,-,N/A,,Clear,300,2013-10-13 16:15:00
9:35 AM,42.8,23.0,46,30.04,10.0,NNW,6.9,-,N/A,,Scattered Clouds,330,2013-10-13 16:35:00
9:55 AM,42.8,23.0,46,30.05,10.0,West,13.8,-,N/A,,Clear,270,2013-10-13 16:55:00
10:15 AM,42.8,23.0,46,30.05,10.0,West,15.0,-,N/A,,Clear,260,2013-10-13 17:15:00
10:35 AM,44.6,23.0,43,30.05,10.0,West,13.8,-,N/A,,Scattered Clouds,260,2013-10-13 17:35:00
10:55 AM,46.4,21.2,37,30.05,10.0,West,10.4,-,N/A,,Mostly Cloudy,270,2013-10-13 17:55:00
11:15 AM,46.4,21.2,37,30.05,10.0,WNW,8.1,-,N/A,,Scattered Clouds,290,2013-10-13 18:15:00
11:35 AM,48.2,19.4,32,30.05,10.0,WNW,6.9,-,N/A,,Mostly Cloudy,290,2013-10-13 18:35:00
11:55 AM,44.6,21.2,39,30.06,10.0,NNW,4.6,-,N/A,,Overcast,330,2013-10-13 18:55:00
12:15 PM,48.2,19.4,32,30.06,10.0,WNW,3.5,-,N/A,,Overcast,290,2013-10-13 19:15:00
12:35 PM,48.2,19.4,32,30.06,10.0,SSW,6.9,-,N/A,,Mostly Cloudy,200,2013-10-13 19:35:00
12:55 PM,48.2,19.4,32,30.05,10.0,SSW,9.2,16.1,N/A,,Mostly Cloudy,200,2013-10-13 19:55:00
1:15 PM,50.0,17.6,28,30.06,10.0,WNW,9.2,-,N/A,,Overcast,300,2013-10-13 20:15:00
1:35 PM,51.8,15.8,24,30.06,10.0,NW,5.8,-,N/A,,Overcast,310,2013-10-13 20:35:00
1:55 PM,55.4,17.6,23,30.06,10.0,North,13.8,18.4,N/A,,Mostly Cloudy,350,2013-10-13 20:55:00
2:15 PM,50.0,17.6,28,30.06,10.0,West,3.5,-,N/A,,Scattered Clouds,270,2013-10-13 21:15:00
2:35 PM,51.8,17.6,26,30.07,10.0,West,4.6,-,N/A,,Scattered Clouds,270,2013-10-13 21:35:00
2:55 PM,51.8,15.8,24,30.07,10.0,NNW,8.1,16.1,N/A,,Scattered Clouds,340,2013-10-13 21:55:00
3:15 PM,48.2,17.6,30,30.07,10.0,WNW,6.9,-,N/A,,Scattered Clouds,300,2013-10-13 22:15:00
3:35 PM,53.6,17.6,24,30.08,10.0,NW,15.0,-,N/A,,Scattered Clouds,320,2013-10-13 22:35:00
3:55 PM,48.2,17.6,30,30.09,10.0,West,5.8,-,N/A,,Scattered Clouds,280,2013-10-13 22:55:00
4:15 PM,48.2,15.8,27,30.09,10.0,NW,5.8,-,N/A,,Clear,320,2013-10-13 23:15:00
4:35 PM,50.0,17.6,28,30.09,10.0,North,4.6,-,N/A,,Clear,360,2013-10-13 23:35:00
4:55 PM,51.8,17.6,26,30.10,10.0,NNW,11.5,-,N/A,,Clear,330,2013-10-13 23:55:00
5:15 PM,50.0,19.4,30,30.11,10.0,NNW,9.2,-,N/A,,Clear,340,2013-10-14 00:15:00
5:35 PM,48.2,21.2,34,30.12,10.0,North,11.5,-,N/A,,Clear,10,2013-10-14 00:35:00
5:55 PM,48.2,21.2,34,30.13,10.0,NNW,10.4,-,N/A,,Clear,330,2013-10-14 00:55:00
6:15 PM,44.6,23.0,43,30.14,10.0,NNW,8.1,-,N/A,,Clear,340,2013-10-14 01:15:00
6:35 PM,41.0,21.2,45,30.15,10.0,NW,3.5,-,N/A,,Clear,320,2013-10-14 01:35:00
6:55 PM,41.0,23.0,49,30.16,10.0,WNW,4.6,-,N/A,,Clear,300,2013-10-14 01:55:00
7:15 PM,41.0,24.8,53,30.17,10.0,NNW,8.1,-,N/A,,Clear,340,2013-10-14 02:15:00
7:35 PM,37.4,23.0,56,30.17,10.0,West,3.5,-,N/A,,Clear,270,2013-10-14 02:35:00
7:55 PM,37.4,24.8,60,30.18,10.0,WSW,6.9,-,N/A,,Clear,250,2013-10-14 02:55:00
8:15 PM,37.4,24.8,60,30.19,10.0,West,9.2,-,N/A,,Clear,270,2013-10-14 03:15:00
8:35 PM,35.6,24.8,65,30.20,10.0,West,10.4,-,N/A,,Clear,270,2013-10-14 03:35:00
8:55 PM,35.6,24.8,65,30.20,10.0,West,6.9,-,N/A,,Clear,270,2013-10-14 03:55:00
9:15 PM,35.6,24.8,65,30.21,10.0,West,10.4,-,N/A,,Clear,280,2013-10-14 04:15:00
9:35 PM,33.8,24.8,70,30.22,10.0,WNW,8.1,-,N/A,,Clear,290,2013-10-14 04:35:00
9:55 PM,32.0,24.8,75,30.22,10.0,West,9.2,-,N/A,,Clear,280,2013-10-14 04:55:00
10:15 PM,32.0,24.8,75,30.23,10.0,WNW,6.9,-,N/A,,Clear,290,2013-10-14 05:15:00
10:35 PM,32.0,24.8,75,30.23,10.0,West,8.1,-,N/A,,Clear,280,2013-10-14 05:35:00
10:55 PM,32.0,24.8,75,30.24,10.0,West,10.4,-,N/A,,Clear,270,2013-10-14 05:55:00
11:15 PM,30.2,24.8,80,30.24,10.0,West,10.4,-,N/A,,Clear,270,2013-10-14 06:15:00
11:35 PM,32.0,24.8,75,30.24,10.0,West,9.2,-,N/A,,Clear,270,2013-10-14 06:35:00
11:55 PM,28.4,23.0,80,30.24,10.0,WNW,4.6,-,N/A,,Clear,290,2013-10-14 06:55:00